createdAt,value
2023-04-14T00:00:36.640Z,100153.41
2023-04-14T00:03:03.600Z,100155.56
2023-04-14T00:05:31.210Z,100155.88
2023-04-14T00:07:58.047Z,100153.47
2023-04-14T00:10:24.977Z,100159.13
2023-04-14T00:12:51.519Z,100167.31
2023-04-14T00:15:18.459Z,100174.47
2023-04-14T00:17:44.991Z,100203.84
2023-04-14T00:20:11.456Z,100208.47
2023-04-14T00:22:38.206Z,100200.78
2023-04-14T00:25:04.925Z,100218.06
2023-04-14T00:27:31.476Z,100232.69
2023-04-14T00:29:57.879Z,100217.16
2023-04-14T00:32:24.259Z,100220.25
2023-04-14T00:34:50.980Z,100223.22
2023-04-14T00:37:17.451Z,100219.31
2023-04-14T00:39:43.839Z,100211.88
2023-04-14T00:42:10.200Z,100229.03
2023-04-14T00:44:36.801Z,100208.81
2023-04-14T00:47:03.757Z,100207.97
2023-04-14T00:49:30.302Z,100206.31
2023-04-14T00:51:57.634Z,100216.16
2023-04-14T00:54:25.091Z,100218.81
2023-04-14T00:56:52.345Z,100211.66
2023-04-14T00:59:18.790Z,100206.31
2023-04-14T01:01:45.540Z,100219.47
2023-04-14T01:04:12.523Z,100218.34
2023-04-14T01:06:38.966Z,100220.06
2023-04-14T01:09:06.494Z,100211.06
2023-04-14T01:11:51.137Z,100217.22
2023-04-14T01:14:38.568Z,100212.75
2023-04-14T01:17:37.372Z,100213.72
2023-04-14T01:20:18.839Z,100213.72
2023-04-14T01:22:52.350Z,100224.56
2023-04-14T01:26:09.657Z,100220.34
2023-04-14T01:29:27.108Z,100221.47
2023-04-14T01:32:11.918Z,100225.41
2023-04-14T01:35:00.704Z,100226.84
2023-04-14T01:37:36.269Z,100230.66
2023-04-14T01:40:11.232Z,100226.56
2023-04-14T01:42:39.901Z,100225.22
2023-04-14T01:45:20.497Z,100215.97
2023-04-14T01:47:48.246Z,100222.72
2023-04-14T01:50:16.257Z,100214.31
2023-04-14T01:52:47.823Z,100219.25
2023-04-14T01:55:17.773Z,100221.34
2023-04-14T01:57:46.665Z,100226.00
2023-04-14T02:00:16.463Z,100226.13
2023-04-14T02:02:45.670Z,100221.78
2023-04-14T02:05:15.885Z,100228.91
2023-04-14T02:07:43.024Z,100220.25
2023-04-14T02:10:11.085Z,100224.59
2023-04-14T02:12:41.139Z,100226.41
2023-04-14T02:15:13.483Z,100218.72
2023-04-14T02:17:41.713Z,100212.69
2023-04-14T02:20:13.647Z,100226.97
2023-04-14T02:22:40.482Z,100229.78
2023-04-14T02:25:07.654Z,100230.06
2023-04-14T02:27:39.380Z,100230.06
2023-04-14T02:30:14.528Z,100233.72
2023-04-14T02:32:46.895Z,100234.69
2023-04-14T02:35:26.783Z,100227.72
2023-04-14T02:38:05.271Z,100228.66
2023-04-14T02:40:36.117Z,100239.31
2023-04-14T02:43:12.888Z,100230.63
2023-04-14T02:45:42.356Z,100234.28
2023-04-14T02:48:13.845Z,100243.28
2023-04-14T02:50:44.184Z,100242.56
2023-04-14T02:53:11.018Z,100246.19
2023-04-14T02:55:37.898Z,100246.34
2023-04-14T02:58:05.034Z,100242.16
2023-04-14T03:00:32.883Z,100241.44
2023-04-14T03:03:01.174Z,100250.56
2023-04-14T03:05:28.396Z,100258.72
2023-04-14T03:07:55.859Z,100265.00
2023-04-14T03:10:23.418Z,100261.50
2023-04-14T03:12:51.080Z,100259.81
2023-04-14T03:15:18.640Z,100257.28
2023-04-14T03:17:48.625Z,100257.28
2023-04-14T03:20:20.215Z,100259.13
2023-04-14T03:22:48.902Z,100257.28
2023-04-14T03:25:15.879Z,100260.94
2023-04-14T03:27:44.656Z,100263.44
2023-04-14T03:30:13.068Z,100254.75
2023-04-14T03:32:41.919Z,100263.75
2023-04-14T03:35:09.828Z,100263.75
2023-04-14T03:37:39.566Z,100269.06
2023-04-14T03:40:08.691Z,100271.84
2023-04-14T03:42:38.120Z,100276.34
2023-04-14T03:45:04.979Z,100272.84
2023-04-14T03:47:32.498Z,100280.00
2023-04-14T03:50:01.677Z,100270.31
2023-04-14T03:52:36.142Z,100267.66
2023-04-14T03:55:08.483Z,100274.13
2023-04-14T03:57:36.793Z,100283.06
2023-04-14T04:00:05.233Z,100277.91
2023-04-14T04:02:32.606Z,100277.19
2023-04-14T04:04:59.978Z,100276.38
2023-04-14T04:07:27.403Z,100284.34
2023-04-14T04:09:56.615Z,100279.03
2023-04-14T04:12:25.303Z,100291.22
2023-04-14T04:14:51.941Z,100286.72
2023-04-14T04:17:22.877Z,100278.59
2023-04-14T04:19:50.556Z,100284.78
2023-04-14T04:22:20.251Z,100293.31
2023-04-14T04:24:48.194Z,100279.84
2023-04-14T04:27:26.705Z,100293.16
2023-04-14T04:29:54.634Z,100285.03
2023-04-14T04:32:21.221Z,100291.09
2023-04-14T04:34:52.495Z,100280.44
2023-04-14T04:37:19.286Z,100283.09
2023-04-14T04:39:45.789Z,100288.41
2023-04-14T04:42:12.248Z,100297.53
2023-04-14T04:44:38.715Z,100304.69
2023-04-14T04:47:05.396Z,100310.84
2023-04-14T04:49:31.727Z,100298.50
2023-04-14T04:51:59.729Z,100297.81
2023-04-14T04:54:27.070Z,100301.31
2023-04-14T04:56:53.797Z,100298.66
2023-04-14T04:59:20.188Z,100296.09
2023-04-14T05:01:46.706Z,100294.28
2023-04-14T05:04:13.212Z,100300.47
2023-04-14T05:06:39.727Z,100301.44
2023-04-14T05:09:06.585Z,100298.78
2023-04-14T05:11:33.744Z,100301.44
2023-04-14T05:14:00.636Z,100293.44
2023-04-14T05:16:28.251Z,100305.81
2023-04-14T05:18:54.655Z,100311.97
2023-04-14T05:21:21.067Z,100306.63
2023-04-14T05:23:48.078Z,100313.50
2023-04-14T05:26:38.760Z,100312.69
2023-04-14T05:29:01.676Z,100313.34
2023-04-14T05:31:28.239Z,100313.22
2023-04-14T05:33:54.592Z,100318.44
2023-04-14T05:36:21.381Z,100314.66
2023-04-14T05:38:47.730Z,100315.31
2023-04-14T05:41:14.109Z,100317.56
2023-04-14T05:43:40.601Z,100320.78
2023-04-14T05:46:07.133Z,100323.19
2023-04-14T05:48:33.818Z,100318.28
2023-04-14T05:51:00.358Z,100318.84
2023-04-14T05:53:27.642Z,100315.78
2023-04-14T05:55:54.038Z,100317.03
2023-04-14T05:58:20.376Z,100320.94
2023-04-14T06:00:47.011Z,100315.19
2023-04-14T06:03:13.655Z,100315.44
2023-04-14T06:05:40.394Z,100313.06
2023-04-14T06:08:06.711Z,100311.66
2023-04-14T06:10:33.092Z,100308.28
2023-04-14T06:12:59.637Z,100317.38
2023-04-14T06:15:29.450Z,100321.97
2023-04-14T06:17:55.837Z,100323.09
2023-04-14T06:20:22.353Z,100318.88
2023-04-14T06:22:48.702Z,100327.81
2023-04-14T06:25:15.183Z,100333.41
2023-04-14T06:27:41.562Z,100335.50
2023-04-14T06:30:08.541Z,100332.09
2023-04-14T06:32:34.967Z,100329.66
2023-04-14T06:35:01.488Z,100324.44
2023-04-14T06:37:27.830Z,100325.53
2023-04-14T06:39:54.211Z,100320.28
2023-04-14T06:42:20.667Z,100317.72
2023-04-14T06:44:47.004Z,100319.63
2023-04-14T06:47:18.242Z,100316.75
2023-04-14T06:49:44.602Z,100316.84
2023-04-14T06:52:10.959Z,100314.09
2023-04-14T06:54:37.368Z,100310.50
2023-04-14T06:57:03.708Z,100305.94
2023-04-14T06:59:30.301Z,100302.34
2023-04-14T07:01:58.635Z,100302.25
2023-04-14T07:04:25.731Z,100298.50
2023-04-14T07:06:52.165Z,100295.72
2023-04-14T07:09:19.411Z,100305.34
2023-04-14T07:11:46.330Z,100301.69
2023-04-14T07:14:12.701Z,100299.75
2023-04-14T07:16:39.081Z,100298.66
2023-04-14T07:19:05.579Z,100295.88
2023-04-14T07:21:32.422Z,100298.25
2023-04-14T07:23:58.931Z,100293.63
2023-04-14T07:26:25.782Z,100297.00
2023-04-14T07:28:52.170Z,100297.72
2023-04-14T07:31:18.539Z,100293.06
2023-04-14T07:33:44.910Z,100302.78
2023-04-14T07:36:11.773Z,100297.28
2023-04-14T07:38:38.213Z,100314.91
2023-04-14T07:41:06.495Z,100305.91
2023-04-14T07:43:35.787Z,100304.91
2023-04-14T07:46:06.870Z,100304.75
2023-04-14T07:48:34.936Z,100306.28
2023-04-14T07:51:03.173Z,100306.94
2023-04-14T07:53:30.138Z,100309.47
2023-04-14T07:55:57.385Z,100303.91
2023-04-14T07:58:25.710Z,100304.56
2023-04-14T08:00:53.198Z,100309.91
2023-04-14T08:03:19.713Z,100302.53
2023-04-14T08:05:46.486Z,100302.34
2023-04-14T08:08:14.137Z,100306.50
2023-04-14T08:10:41.923Z,100302.59
2023-04-14T08:13:08.671Z,100305.09
2023-04-14T08:15:35.216Z,100305.72
2023-04-14T08:18:01.789Z,100305.50
2023-04-14T08:20:28.238Z,100301.81
2023-04-14T08:22:56.510Z,100297.22
2023-04-14T08:25:22.946Z,100304.22
2023-04-14T08:27:49.294Z,100305.03
2023-04-14T08:30:15.826Z,100298.56
2023-04-14T08:32:42.247Z,100301.03
2023-04-14T08:35:37.237Z,100299.97
2023-04-14T08:37:55.680Z,100301.56
2023-04-14T08:40:22.445Z,100303.53
2023-04-14T08:42:48.848Z,100297.44
2023-04-14T08:45:15.531Z,100292.34
2023-04-14T08:47:45.805Z,100299.69
2023-04-14T08:50:18.377Z,100297.28
2023-04-14T08:52:47.050Z,100292.38
2023-04-14T08:55:15.565Z,100295.19
2023-04-14T08:57:44.018Z,100287.03
2023-04-14T09:00:11.090Z,100284.63
2023-04-14T09:02:40.165Z,100286.56
2023-04-14T09:05:07.363Z,100285.84
2023-04-14T09:07:34.309Z,100293.19
2023-04-14T09:10:00.916Z,100285.22
2023-04-14T09:12:28.711Z,100289.69
2023-04-14T09:14:58.075Z,100289.56
2023-04-14T09:17:28.447Z,100289.31
2023-04-14T09:20:36.048Z,100285.50
2023-04-14T09:22:41.754Z,100294.09
2023-04-14T09:25:09.993Z,100279.34
2023-04-14T09:27:36.483Z,100280.88
2023-04-14T09:30:03.660Z,100281.41
2023-04-14T09:32:31.004Z,100288.00
2023-04-14T09:34:58.444Z,100280.44
2023-04-14T09:37:25.576Z,100272.81
2023-04-14T09:39:53.716Z,100280.41
2023-04-14T09:42:21.142Z,100267.47
2023-04-14T09:44:58.943Z,100275.03
2023-04-14T09:47:26.422Z,100260.56
2023-04-14T09:50:05.435Z,100261.06
2023-04-14T09:52:42.700Z,100261.09
2023-04-14T09:55:13.565Z,100266.16
2023-04-14T09:57:47.420Z,100266.19
2023-04-14T10:00:17.914Z,100257.31
2023-04-14T10:02:55.678Z,100259.00
2023-04-14T10:05:27.203Z,100258.03
2023-04-14T10:07:53.946Z,100255.97
2023-04-14T10:10:20.433Z,100256.63
2023-04-14T10:12:46.978Z,100248.34
2023-04-14T10:15:14.762Z,100243.00
2023-04-14T10:17:42.369Z,100250.13
2023-04-14T10:20:10.240Z,100247.25
2023-04-14T10:22:37.207Z,100241.00
2023-04-14T10:25:07.011Z,100244.34
2023-04-14T10:27:34.279Z,100239.38
2023-04-14T10:30:01.455Z,100236.94
2023-04-14T10:32:32.856Z,100239.03
2023-04-14T10:35:26.252Z,100237.16
2023-04-14T10:37:53.614Z,100230.50
2023-04-14T10:40:22.251Z,100226.34
2023-04-14T10:42:56.553Z,100225.50
2023-04-14T10:45:23.367Z,100216.13
2023-04-14T10:47:50.740Z,100211.13
2023-04-14T10:50:19.361Z,100215.69
2023-04-14T10:52:56.499Z,100211.28
2023-04-14T10:55:24.789Z,100210.63
2023-04-14T10:57:52.277Z,100217.25
2023-04-14T11:00:23.257Z,100210.94
2023-04-14T11:02:59.053Z,100205.66
2023-04-14T11:05:25.664Z,100208.34
2023-04-14T11:07:56.191Z,100203.91
2023-04-14T11:10:22.869Z,100195.72
2023-04-14T11:12:56.336Z,100195.47
2023-04-14T11:15:23.135Z,100195.41
2023-04-14T11:17:50.876Z,100186.41
2023-04-14T11:20:18.330Z,100188.00
2023-04-14T11:22:45.963Z,100189.84
2023-04-14T11:25:14.862Z,100192.03
2023-04-14T11:27:42.708Z,100175.69
2023-04-14T11:30:14.273Z,100180.84
2023-04-14T11:32:54.418Z,100178.47
2023-04-14T11:35:24.039Z,100176.09
2023-04-14T11:37:54.178Z,100180.78
2023-04-14T11:40:21.554Z,100172.34
2023-04-14T11:42:55.486Z,100177.25
2023-04-14T11:45:21.964Z,100173.25
2023-04-14T11:48:03.252Z,100178.22
2023-04-14T11:50:31.556Z,100163.44
2023-04-14T11:52:59.796Z,100164.94
2023-04-14T11:55:29.802Z,100166.44
2023-04-14T11:57:57.101Z,100171.13
2023-04-14T12:00:24.516Z,100169.91
2023-04-14T12:02:51.715Z,100171.66
2023-04-14T12:05:23.685Z,100167.28
2023-04-14T12:07:50.490Z,100156.84
2023-04-14T12:10:17.724Z,100157.91
2023-04-14T12:12:44.238Z,100153.75
2023-04-14T12:15:11.462Z,100160.00
2023-04-14T12:17:38.455Z,100150.00
2023-04-14T12:20:06.758Z,100145.75
2023-04-14T12:22:33.105Z,100148.25
2023-04-14T12:24:59.513Z,100141.53
2023-04-14T12:27:27.513Z,100136.69
2023-04-14T12:29:53.999Z,100138.13
2023-04-14T12:32:22.274Z,100138.53
2023-04-14T12:34:58.626Z,100131.81
2023-04-14T12:37:29.015Z,100140.16
2023-04-14T12:40:00.865Z,100134.72
2023-04-14T12:42:29.551Z,100138.66
2023-04-14T12:45:02.525Z,100134.41
2023-04-14T12:47:30.080Z,100131.84
2023-04-14T12:49:58.368Z,100128.25
2023-04-14T12:52:39.750Z,100128.50
2023-04-14T12:55:07.790Z,100123.00
2023-04-14T12:57:35.087Z,100116.03
2023-04-14T13:00:02.045Z,100114.75
2023-04-14T13:02:30.081Z,100113.91
2023-04-14T13:04:57.204Z,100112.03
2023-04-14T13:07:23.786Z,100112.63
2023-04-14T13:09:51.845Z,100107.31
2023-04-14T13:12:18.561Z,100110.19
2023-04-14T13:14:45.016Z,100105.09
2023-04-14T13:17:11.474Z,100097.94
2023-04-14T13:19:38.223Z,100091.78
2023-04-14T13:22:04.540Z,100091.13
2023-04-14T13:24:31.171Z,100090.44
2023-04-14T13:26:57.525Z,100084.03
2023-04-14T13:29:23.930Z,100080.41
2023-04-14T13:31:50.522Z,100087.84
2023-04-14T13:34:16.913Z,100070.59
2023-04-14T13:36:43.438Z,100075.91
2023-04-14T13:39:10.007Z,100073.09
2023-04-14T13:41:36.433Z,100071.06
2023-04-14T13:44:04.293Z,100066.59
2023-04-14T13:46:36.193Z,100067.75
2023-04-14T13:49:06.994Z,100062.09
2023-04-14T13:51:33.511Z,100053.31
2023-04-14T13:53:59.862Z,100050.81
2023-04-14T13:56:27.309Z,100051.06
2023-04-14T13:58:53.904Z,100053.81
2023-04-14T14:01:20.659Z,100047.53
2023-04-14T14:03:47.835Z,100047.53
2023-04-14T14:06:14.547Z,100050.47
2023-04-14T14:08:42.211Z,100040.06
2023-04-14T14:11:10.528Z,100046.00
2023-04-14T14:13:38.757Z,100053.78
2023-04-14T14:16:08.819Z,100049.03
2023-04-14T14:18:36.388Z,100041.59
2023-04-14T14:21:02.738Z,100045.03
2023-04-14T14:23:29.158Z,100045.72
2023-04-14T14:25:55.828Z,100044.75
2023-04-14T14:28:22.512Z,100034.13
2023-04-14T14:30:48.968Z,100031.03
2023-04-14T14:33:15.487Z,100027.13
2023-04-14T14:35:41.941Z,100031.97
2023-04-14T14:38:08.287Z,100031.38
2023-04-14T14:40:34.732Z,100039.53
2023-04-14T14:43:01.455Z,100028.88
2023-04-14T14:45:30.861Z,100029.94
2023-04-14T14:47:59.171Z,100034.56
2023-04-14T14:50:25.674Z,100036.22
2023-04-14T14:52:52.053Z,100031.38
2023-04-14T14:55:18.592Z,100027.34
2023-04-14T14:57:44.997Z,100029.84
2023-04-14T15:00:11.859Z,100023.34
2023-04-14T15:02:38.851Z,100029.97
2023-04-14T15:05:07.216Z,100022.63
2023-04-14T15:07:33.844Z,100025.13
2023-04-14T15:10:01.669Z,100014.22
2023-04-14T15:12:28.068Z,100014.81
2023-04-14T15:14:54.503Z,100012.69
2023-04-14T15:17:20.982Z,100011.63
2023-04-14T15:19:47.355Z,100011.41
2023-04-14T15:22:14.842Z,100012.22
2023-04-14T15:24:41.339Z,100012.44
2023-04-14T15:27:07.694Z,100012.09
2023-04-14T15:29:34.070Z,100016.59
2023-04-14T15:32:00.643Z,100016.47
2023-04-14T15:34:27.815Z,100017.41
2023-04-14T15:36:54.174Z,100009.31
2023-04-14T15:39:20.778Z,100016.53
2023-04-14T15:41:49.148Z,100016.66
2023-04-14T15:44:15.729Z,100014.47
2023-04-14T15:46:42.035Z,100026.75
2023-04-14T15:49:08.476Z,100019.16
2023-04-14T15:51:34.828Z,100015.09
2023-04-14T15:54:01.970Z,100015.41
2023-04-14T15:56:29.491Z,100009.22
2023-04-14T15:58:56.830Z,100012.88
2023-04-14T16:01:23.227Z,100015.91
2023-04-14T16:03:51.880Z,100017.88
2023-04-14T16:06:19.012Z,100011.66
2023-04-14T16:08:45.478Z,100009.03
2023-04-14T16:11:18.135Z,100008.50
2023-04-14T16:13:45.549Z,100010.69
2023-04-14T16:16:13.463Z,100021.63
2023-04-14T16:18:39.881Z,100020.03
2023-04-14T16:21:06.561Z,100015.28
2023-04-14T16:23:32.950Z,100006.31
2023-04-14T16:25:59.314Z,100016.09
2023-04-14T16:28:25.866Z,100005.41
2023-04-14T16:30:52.329Z,100013.25
2023-04-14T16:33:19.253Z,100014.81
2023-04-14T16:35:45.916Z,100017.84
2023-04-14T16:38:12.262Z,100012.72
2023-04-14T16:40:38.951Z,100012.44
2023-04-14T16:43:05.477Z,100012.94
2023-04-14T16:45:32.502Z,100010.97
2023-04-14T16:47:59.076Z,100008.19
2023-04-14T16:50:25.590Z,100010.19
2023-04-14T16:52:52.571Z,100011.41
2023-04-14T16:55:19.076Z,100011.75
2023-04-14T16:57:45.636Z,100014.47
2023-04-14T17:00:13.834Z,100018.75
2023-04-14T17:02:41.235Z,100013.38
2023-04-14T17:05:10.122Z,100026.47
2023-04-14T17:07:37.042Z,100018.00
2023-04-14T17:10:03.527Z,100027.09
2023-04-14T17:12:30.028Z,100023.13
2023-04-14T17:14:56.560Z,100026.91
2023-04-14T17:17:23.059Z,100029.63
2023-04-14T17:19:49.450Z,100033.53
2023-04-14T17:22:15.937Z,100030.41
2023-04-14T17:24:42.844Z,100034.94
2023-04-14T17:27:09.212Z,100032.97
2023-04-14T17:29:35.529Z,100032.66
2023-04-14T17:32:02.228Z,100034.44
2023-04-14T17:34:29.620Z,100037.53
2023-04-14T17:36:56.381Z,100032.09
2023-04-14T17:39:26.533Z,100030.66
2023-04-14T17:41:58.065Z,100035.50
2023-04-14T17:44:31.932Z,100034.75
2023-04-14T17:47:03.077Z,100035.09
2023-04-14T17:49:30.137Z,100035.00
2023-04-14T17:51:57.020Z,100036.19
2023-04-14T17:54:23.564Z,100038.25
2023-04-14T17:56:50.474Z,100037.75
2023-04-14T17:59:17.587Z,100042.72
2023-04-14T18:01:44.131Z,100043.66
2023-04-14T18:04:10.815Z,100039.41
2023-04-14T18:06:37.325Z,100043.88
2023-04-14T18:09:03.970Z,100043.13
2023-04-14T18:11:30.465Z,100050.31
2023-04-14T18:13:58.269Z,100047.69
2023-04-14T18:16:24.990Z,100049.41
2023-04-14T18:18:51.427Z,100053.88
2023-04-14T18:21:17.920Z,100056.44
2023-04-14T18:23:44.319Z,100068.16
2023-04-14T18:28:39.999Z,100072.38
2023-04-14T18:31:06.676Z,100076.56
2023-04-14T18:33:33.173Z,100074.50
2023-04-14T18:36:00.495Z,100077.88
2023-04-14T18:38:27.443Z,100078.50
2023-04-14T18:40:53.901Z,100079.13
2023-04-14T18:43:20.293Z,100083.28
2023-04-14T18:45:48.388Z,100095.56
2023-04-14T18:48:17.807Z,100090.56
2023-04-14T18:50:47.532Z,100095.72
2023-04-14T18:53:14.644Z,100096.94
2023-04-14T18:55:45.215Z,100107.13
2023-04-14T18:58:12.712Z,100102.09
2023-04-14T19:00:39.703Z,100106.03
2023-04-14T19:03:07.177Z,100108.94
2023-04-14T19:05:35.119Z,100119.06
2023-04-14T19:08:02.432Z,100119.22
2023-04-14T19:10:29.086Z,100121.28
2023-04-14T19:12:55.567Z,100122.28
2023-04-14T19:15:22.006Z,100133.88
2023-04-14T19:17:48.632Z,100128.66
2023-04-14T19:20:15.276Z,100130.25
2023-04-14T19:22:41.728Z,100128.34
2023-04-14T19:25:08.568Z,100133.50
2023-04-14T19:27:38.835Z,100128.88
2023-04-14T19:30:06.847Z,100134.84
2023-04-14T19:32:34.287Z,100133.13
2023-04-14T19:35:01.029Z,100131.22
2023-04-14T19:37:28.275Z,100139.06
2023-04-14T19:39:54.613Z,100141.53
2023-04-14T19:42:21.266Z,100143.97
2023-04-14T19:44:47.703Z,100141.19
2023-04-14T19:47:14.020Z,100150.91
2023-04-14T19:49:41.357Z,100150.66
2023-04-14T19:52:08.580Z,100150.41
2023-04-14T19:54:35.504Z,100152.88
2023-04-14T19:57:01.894Z,100150.91
2023-04-14T19:59:31.550Z,100156.06
2023-04-14T20:01:59.156Z,100153.09
2023-04-14T20:04:25.713Z,100148.47
2023-04-14T20:06:53.218Z,100145.53
2023-04-14T20:09:19.797Z,100146.91
2023-04-14T20:11:47.393Z,100145.66
2023-04-14T20:14:13.798Z,100150.75
2023-04-14T20:16:42.476Z,100150.31
2023-04-14T20:19:08.857Z,100151.88
2023-04-14T20:21:35.198Z,100151.44
2023-04-14T20:24:01.846Z,100149.31
2023-04-14T20:26:28.501Z,100148.03
2023-04-14T20:28:55.987Z,100150.22
2023-04-14T20:31:23.600Z,100143.72
2023-04-14T20:33:50.833Z,100145.78
2023-04-14T20:36:17.381Z,100144.50
2023-04-14T20:38:43.823Z,100137.78
2023-04-14T20:41:10.137Z,100147.28
2023-04-14T20:43:36.544Z,100153.06
2023-04-14T20:46:03.944Z,100153.44
2023-04-14T20:48:31.993Z,100146.72
2023-04-14T20:50:59.485Z,100144.41
2023-04-14T20:53:28.324Z,100142.09
2023-04-14T20:55:54.963Z,100145.13
2023-04-14T20:58:21.336Z,100145.53
2023-04-14T21:00:47.757Z,100149.63
2023-04-14T21:03:14.258Z,100150.81
2023-04-14T21:05:41.206Z,100148.50
2023-04-14T21:08:08.246Z,100150.91
2023-04-14T21:10:35.502Z,100153.13
2023-04-14T21:15:27.858Z,100147.28
2023-04-14T21:16:09.347Z,100149.16
2023-04-14T21:18:36.333Z,100150.50
2023-04-14T21:21:04.670Z,100166.38
2023-04-14T21:23:31.005Z,100160.72
2023-04-14T21:25:59.717Z,100165.78
2023-04-14T21:28:26.245Z,100164.50
2023-04-14T21:30:55.749Z,100170.25
2023-04-14T21:33:22.117Z,100168.94
2023-04-14T21:35:49.458Z,100170.31
2023-04-14T21:38:15.776Z,100177.91
2023-04-14T21:40:43.342Z,100181.78
2023-04-14T21:43:09.697Z,100169.75
2023-04-14T21:45:36.117Z,100171.94
2023-04-14T21:48:03.104Z,100176.84
2023-04-14T21:50:30.973Z,100182.59
2023-04-14T21:52:58.986Z,100181.25
2023-04-14T21:55:25.370Z,100185.34
2023-04-14T21:57:52.433Z,100185.66
2023-04-14T22:00:19.165Z,100192.59
2023-04-14T22:02:46.056Z,100185.91
2023-04-14T22:05:13.333Z,100190.13
2023-04-14T22:07:39.868Z,100183.44
2023-04-14T22:10:06.990Z,100186.63
2023-04-14T22:12:37.651Z,100181.81
2023-04-14T22:15:04.421Z,100187.72
2023-04-14T22:17:31.303Z,100189.06
2023-04-14T22:19:57.761Z,100192.31
2023-04-14T22:22:24.350Z,100186.63
2023-04-14T22:24:51.734Z,100183.63
2023-04-14T22:27:18.141Z,100190.34
2023-04-14T22:29:44.460Z,100196.22
2023-04-14T22:32:11.473Z,100194.09
2023-04-14T22:34:37.835Z,100192.75
2023-04-14T22:37:04.204Z,100198.47
2023-04-14T22:39:30.962Z,100197.13
2023-04-14T22:41:57.572Z,100190.47
2023-04-14T22:44:23.918Z,100189.13
2023-04-14T22:46:50.462Z,100191.31
2023-04-14T22:49:16.804Z,100196.22
2023-04-14T22:51:43.134Z,100194.72
2023-04-14T22:54:09.539Z,100198.56
2023-04-14T22:56:37.095Z,100202.44
2023-04-14T22:59:03.583Z,100193.88
2023-04-14T23:01:30.324Z,100195.88
2023-04-14T23:03:56.769Z,100198.09
2023-04-14T23:06:23.362Z,100203.81
2023-04-14T23:08:51.153Z,100199.78
2023-04-14T23:11:20.783Z,100210.84
2023-04-14T23:13:47.470Z,100203.31
2023-04-14T23:16:13.998Z,100202.00
2023-04-14T23:18:40.645Z,100202.34
2023-04-14T23:21:06.959Z,100200.97
2023-04-14T23:23:33.370Z,100204.34
2023-04-14T23:26:00.011Z,100204.84
2023-04-14T23:28:26.339Z,100208.91
2023-04-14T23:30:52.839Z,100205.88
2023-04-14T23:33:19.615Z,100204.38
2023-04-14T23:35:46.362Z,100203.03
2023-04-14T23:38:12.735Z,100205.03
2023-04-14T23:40:39.280Z,100208.84
2023-04-14T23:43:05.639Z,100211.72
2023-04-14T23:45:36.858Z,100200.47
2023-04-14T23:48:05.117Z,100205.00
2023-04-14T23:51:01.051Z,100214.22
2023-04-14T23:53:17.834Z,100213.22
2023-04-14T23:55:44.114Z,100218.59
2023-04-14T23:58:11.154Z,100211.88
